Terminal Aerodrome Forecast
Issued by NWS

Current Version | Previous Version | Graphics & Text | Print | Product List | Glossary On
Versions: 1 2 3 4 5 6 7 8 9 10 11 12 13 14 15 16 17 18 19 20
000
FTUS41 KRLX 151700 RRA
TAFCKB
TAF
KCKB 151750Z 1518/1618 VRB03KT P6SM SCT250
     FM160500 00000KT P6SM VCSH BKN030 OVC120
     FM161200 01004KT P6SM OVC015
     FM161500 00000KT P6SM BKN020=

USA.gov is the U.S. government's official web portal to all federal, state and local government web resources and services.